Barrow, AK

7:34 PM AKST on November 20, 2014 (GMT -0900)
Wiley Post-Will Rogers Memorial | Change Station
CLOSE
Current Station
Airport
Location: Barrow,
Elevation: 43 ft
Nearby Weather Stations
Active Advisory: Winter Weather Advisory Active Notice: Record Report

Elev 43 ft 71.28 °N, 156.79 °W | Updated 41 minutes ago

Blowing Snow
Blowing Snow
16 °F
Feels Like -2 °F
N
22
Wind Variable Wind from East
Gusts 30 mph

Today
High -- | Low -- °F
--% Chance of Precip.
Yesterday
High -- | Low -- °F
Precip. -- in
12:40 PM 1:45 PM
Waning Crescent, 2% visible
Pressure 29.88 in
Visibility 3.0 miles
Clouds Overcast 1400 ft
Windchill -2 °F
Dew Point 14 °F
Humidity 92%
Rainfall 0.29 in
Snow Depth Not available.
UV 0 out of 12
Pollen Not available.
Air Quality Not available.
Flu Activity Not available.
METAR PABR 210353Z 09019G26KT 3SM BLSN OVC014 M09/M10 A2987 RMK AO2 PK WND 11028/0255 SNE13 SLP118 P0000 T10891100

More Conditions Fewer Conditions

Pressure 29.88 in
Visibility 3.0 miles
Clouds Overcast 1400 ft
Windchill -2 °F
Dew Point 14 °F
Humidity 92%
Rainfall 0.29 in
Snow Depth Not available.
UV 0 out of 12
Pollen Not available.
Air Quality Not available.
Flu Activity Not available.
METAR PABR 210353Z 09019G26KT 3SM BLSN OVC014 M09/M10 A2987 RMK AO2 PK WND 11028/0255 SNE13 SLP118 P0000 T10891100

More Conditions Fewer Conditions

10-Day Weather Forecast

Almanac

Astronomy

Nov. 20, 2014 Rise Set
Actual Time
Civil Twilight
Nautical Twilight
Astronomical Twilight
Moon
Length of Visible Light
Length of Day
Tomorrow will be .
, % of the Moon is Illuminated

Today's Extremes

State Highs State Lows

Community

WunderPhotos

Upload Photos

1,772,620 photos uploaded!

WunderBlogs® & News

Nearby

Air Quality

  Air Quality AQ Index Pollutant
Not available.

Snow Depth

Station Depth Elevation

Earthquake Activity

City Distance Mag. Time & Date
Minimum magnitude displayed is 2.5.

Coastal Water Temperatures

Place Temperature

Nearby Weather Stations